Time;durP1;ratioP1;P1;durP2;ratioP2;P2;SDS_P1;SDS_P2;PMS_P1;PMS_P2;Temp;Humidity;BMP_temperature;BMP_pressure;BME280_temperature;BME280_humidity;BME280_pressure;Samples;Min_cycle;Max_cycle;Signal;HPM_P1;HPM_P2
2023/05/22 00:01:59;;;;;;;12.07;7.40;;;;;;;11.11;68.58;100774.67;1764474;81;25508;-53
2023/05/22 00:04:28;;;;;;;9.45;7.25;;;;;;;11.08;68.74;100766.36;1764472;81;26032;-53
2023/05/22 00:06:55;;;;;;;9.23;6.42;;;;;;;11.03;68.72;100770.78;1764653;80;25544;-51
2023/05/22 00:09:24;;;;;;;83.78;77.92;;;;;;;10.97;68.61;100774.67;1764615;81;27393;-52
2023/05/22 00:11:52;;;;;;;86.53;80.53;;;;;;;10.91;68.59;100774.51;1772868;80;25778;-54
2023/05/22 00:14:18;;;;;;;84.55;78.65;;;;;;;10.86;68.75;100769.75;1763385;81;25633;-55
2023/05/22 00:16:47;;;;;;;83.17;77.47;;;;;;;10.80;68.97;100767.14;1763832;81;25741;-52
2023/05/22 00:19:15;;;;;;;83.55;77.75;;;;;;;10.74;69.01;100766.17;1774949;80;25540;-51
2023/05/22 00:21:42;;;;;;;83.97;77.87;;;;;;;10.68;69.16;100768.73;1742590;82;27390;-52
2023/05/22 00:24:10;;;;;;;83.50;77.65;;;;;;;10.65;69.60;100762.00;1724041;83;25429;-51
2023/05/22 00:26:37;;;;;;;83.45;77.42;;;;;;;10.64;69.66;100764.44;1724103;83;25478;-52
2023/05/22 00:29:07;;;;;;;86.63;80.62;;;;;;;10.59;69.92;100757.77;1742733;82;25714;-54
2023/05/22 00:31:34;;;;;;;84.35;78.45;;;;;;;10.57;70.04;100766.21;1742711;82;25574;-52
2023/05/22 00:34:00;;;;;;;85.47;79.47;;;;;;;10.54;69.92;100759.21;1742671;82;27435;-55
2023/05/22 00:36:26;;;;;;;84.28;78.45;;;;;;;10.50;70.12;100758.21;1742642;82;25563;-54
2023/05/22 00:38:52;;;;;;;86.40;80.50;;;;;;;10.46;70.28;100752.59;1742652;81;25420;-53
2023/05/22 00:41:21;;;;;;;82.72;77.20;;;;;;;10.43;70.51;100769.41;1721408;82;25719;-52
2023/05/22 00:43:49;;;;;;;84.13;78.50;;;;;;;10.38;70.82;100766.23;1742757;81;25424;-54
2023/05/22 00:46:20;;;;;;;83.10;77.20;;;;;;;10.35;70.94;100764.67;1721646;82;27177;-55
2023/05/22 00:48:44;;;;;;;82.72;76.90;;;;;;;10.33;70.97;100766.88;1742687;82;25527;-55
2023/05/22 00:51:10;;;;;;;83.78;78.05;;;;;;;10.33;71.18;100766.88;1742730;82;29745;-56
2023/05/22 00:53:36;;;;;;;84.10;77.87;;;;;;;10.31;71.04;100760.94;1742730;81;26362;-54
2023/05/22 00:56:06;;;;;;;85.95;80.15;;;;;;;10.27;70.97;100764.78;1721726;82;25570;-52
2023/05/22 00:58:32;;;;;;;83.40;77.50;;;;;;;10.23;71.17;100765.09;1742848;82;27307;-52
2023/05/22 01:00:58;;;;;;;86.10;80.28;;;;;;;10.19;71.14;100765.45;1742581;82;25546;-52
2023/05/22 01:03:25;;;;;;;83.78;78.02;;;;;;;10.16;71.47;100762.77;1742631;82;25460;-51
2023/05/22 01:05:54;;;;;;;86.20;80.30;;;;;;;10.15;71.61;100764.41;1742617;82;26278;-53
2023/05/22 01:08:21;;;;;;;83.47;77.80;;;;;;;10.13;71.55;100765.26;1742814;82;25623;-52
2023/05/22 01:10:52;;;;;;;83.35;77.72;;;;;;;10.08;71.84;100762.11;1742690;82;29469;-55
2023/05/22 01:14:00;;;;;;;84.13;78.07;;;;;;;10.06;71.96;100760.22;1742485;82;25381;-54
2023/05/22 01:16:53;;;;;;;83.62;77.80;;;;;;;10.03;71.98;100762.98;1742625;82;25381;-55
2023/05/22 01:19:46;;;;;;;84.03;78.33;;;;;;;10.00;72.00;100765.47;1750897;81;25617;-52
2023/05/22 01:22:57;;;;;;;82.37;76.57;;;;;;;9.97;72.14;100767.41;1756525;81;25607;-56
2023/05/22 01:25:53;;;;;;;83.70;77.92;;;;;;;9.95;72.12;100766.90;1689736;84;27357;-56
2023/05/22 01:28:43;;;;;;;83.90;78.12;;;;;;;9.96;72.42;100763.91;1724699;83;25569;-52
2023/05/22 01:31:16;;;;;;;82.62;76.90;;;;;;;9.98;72.38;100763.62;1689871;84;25435;-52
2023/05/22 01:33:50;;;;;;;84.65;78.67;;;;;;;10.00;72.87;100764.91;1689894;84;25668;-52
2023/05/22 01:36:21;;;;;;;81.90;76.30;;;;;;;10.02;72.83;100761.92;1689948;84;25598;-55
2023/05/22 01:38:50;;;;;;;84.15;78.33;;;;;;;10.04;72.65;100766.48;1700339;83;27328;-55
2023/05/22 01:41:17;;;;;;;81.97;76.35;;;;;;;10.06;72.71;100765.63;1690029;84;25707;-55
2023/05/22 01:43:45;;;;;;;83.87;77.97;;;;;;;10.05;72.46;100759.98;1689802;84;25602;-53
2023/05/22 01:46:11;;;;;;;82.00;76.37;;;;;;;10.05;72.65;100769.45;1724614;83;25666;-56
2023/05/22 01:48:37;;;;;;;83.72;77.75;;;;;;;10.02;72.37;100762.72;1666314;84;32378;-52
2023/05/22 01:51:32;;;;;;;85.45;79.65;;;;;;;10.03;72.49;100771.09;1689861;84;27240;-52
2023/05/22 01:54:08;;;;;;;87.20;81.17;;;;;;;10.01;72.25;100771.94;1724644;83;25652;-55
2023/05/22 01:56:42;;;;;;;83.25;77.32;;;;;;;10.00;72.37;100769.52;1689890;84;25488;-52
2023/05/22 01:59:17;;;;;;;83.75;78.12;;;;;;;10.00;72.54;100771.67;1689605;84;25597;-55
2023/05/22 02:01:44;;;;;;;82.95;77.20;;;;;;;9.97;72.33;100770.90;1713322;81;25511;-53
2023/05/22 02:04:13;;;;;;;84.70;78.65;;;;;;;9.90;72.30;100767.21;1780382;80;27473;-54
2023/05/22 02:06:40;;;;;;;;;;;;;;;9.87;72.55;100772.40;1782965;80;25530;-52
2023/05/22 02:09:08;;;;;;;83.58;77.67;;;;;;;9.83;72.51;100774.89;1780445;80;25541;-54
2023/05/22 02:11:37;;;;;;;83.85;78.07;;;;;;;9.77;72.63;100776.04;1794310;79;25582;-56
2023/05/22 02:14:04;;;;;;;87.70;81.35;;;;;;;9.70;72.59;100768.33;1780449;80;25551;-55
2023/05/22 02:16:31;;;;;;;84.50;78.50;;;;;;;9.66;72.87;100769.98;1794334;79;27280;-55
2023/05/22 02:19:05;;;;;;;87.53;81.53;;;;;;;9.64;73.10;100772.17;1787934;80;25680;-55
2023/05/22 02:21:33;;;;;;;83.97;78.07;;;;;;;9.62;73.11;100768.97;1775403;80;25518;-55
2023/05/22 02:24:01;;;;;;;88.27;82.08;;;;;;;9.57;73.18;100770.39;1775525;80;25617;-52
2023/05/22 02:26:28;;;;;;;83.60;77.70;;;;;;;9.52;73.14;100771.25;1755750;80;25439;-54
2023/05/22 02:28:54;;;;;;;87.17;81.05;;;;;;;9.50;73.12;100770.74;1775491;80;27378;-53
2023/05/22 02:31:20;;;;;;;83.10;77.42;;;;;;;9.50;73.30;100769.39;1775383;80;25683;-51
2023/05/22 02:33:47;;;;;;;83.95;78.15;;;;;;;9.54;73.55;100773.66;1755733;80;29582;-52
2023/05/22 02:36:14;;;;;;;54.83;50.85;;;;;;;9.56;73.61;100776.88;1775388;80;25669;-54
2023/05/22 02:38:41;;;;;;;12.35;7.60;;;;;;;9.58;73.80;100775.23;1775502;80;25433;-51
2023/05/22 02:41:07;;;;;;;12.60;7.55;;;;;;;9.60;73.51;100771.69;1775475;80;27301;-52
2023/05/22 02:43:34;;;;;;;11.50;7.75;;;;;;;9.60;73.51;100773.83;1775350;80;25594;-52
2023/05/22 02:45:59;;;;;;;20.00;18.35;;;;;;;9.61;73.72;100771.41;1775456;80;29996;-52
2023/05/22 02:48:28;;;;;;;9.25;6.72;;;;;;;9.57;73.53;100770.39;1775438;80;25578;-53
2023/05/22 02:50:54;;;;;;;11.55;7.50;;;;;;;9.54;73.50;100769.05;1775463;80;25376;-51
2023/05/22 02:53:20;;;;;;;12.47;7.72;;;;;;;9.50;73.57;100761.81;1755566;80;28334;-55
2023/05/22 02:55:47;;;;;;;8.85;6.83;;;;;;;9.46;73.66;100762.15;1775258;80;25430;-56
2023/05/22 02:58:14;;;;;;;11.75;10.13;;;;;;;9.43;73.75;100758.15;1775528;80;25552;-56
2023/05/22 03:00:42;;;;;;;24.50;22.32;;;;;;;9.42;73.95;100765.19;1775429;80;25635;-55
2023/05/22 03:03:08;;;;;;;53.85;50.15;;;;;;;9.40;74.05;100760.07;1775417;80;25558;-54
2023/05/22 03:05:37;;;;;;;66.92;62.33;;;;;;;9.39;74.17;100753.05;1775460;80;27188;-52
2023/05/22 03:08:05;;;;;;;37.83;34.80;;;;;;;9.41;74.43;100754.91;1775436;80;25452;-53
2023/05/22 03:10:32;;;;;;;80.45;74.95;;;;;;;9.41;74.42;100746.81;1772469;80;25392;-52
2023/05/22 03:12:58;;;;;;;86.57;80.53;;;;;;;9.40;74.32;100756.02;1775389;80;25667;-52
2023/05/22 03:15:24;;;;;;;84.65;78.90;;;;;;;9.42;74.62;100747.64;1775469;80;25538;-52
2023/05/22 03:17:50;;;;;;;19.48;17.48;;;;;;;9.47;74.86;100752.41;1775419;80;27375;-53
2023/05/22 03:20:16;;;;;;;10.75;7.40;;;;;;;9.52;74.87;100744.80;1775341;80;25456;-56
2023/05/22 03:22:44;;;;;;;10.68;7.30;;;;;;;9.57;74.94;100749.31;1775490;80;25478;-53
2023/05/22 03:25:11;;;;;;;29.67;27.48;;;;;;;9.60;74.97;100741.42;1775554;80;25588;-53
2023/05/22 03:27:40;;;;;;;54.65;50.75;;;;;;;9.65;75.08;100747.31;1775461;80;25353;-54
2023/05/22 03:30:08;;;;;;;13.62;12.28;;;;;;;9.68;74.88;100754.28;1755688;80;27176;-52
2023/05/22 03:32:36;;;;;;;14.10;11.33;;;;;;;9.72;74.76;100750.45;1775368;80;25566;-52
2023/05/22 03:35:06;;;;;;;20.50;18.45;;;;;;;9.73;74.74;100743.41;1775390;80;25556;-54
2023/05/22 03:37:32;;;;;;;13.75;11.83;;;;;;;9.77;74.83;100748.23;1775568;80;25616;-52
2023/05/22 03:39:58;;;;;;;64.95;60.38;;;;;;;9.83;74.89;100752.48;1775441;80;25434;-53
2023/05/22 03:42:25;;;;;;;10.00;8.10;;;;;;;9.86;74.93;100751.34;1775385;80;27282;-52
2023/05/22 03:44:51;;;;;;;12.60;8.33;;;;;;;9.91;75.06;100755.31;1775423;80;25907;-55
2023/05/22 03:47:18;;;;;;;10.98;7.15;;;;;;;9.96;75.27;100754.45;1775562;80;25640;-55
2023/05/22 03:49:44;;;;;;;12.15;7.30;;;;;;;10.01;75.31;100754.90;1775566;80;25610;-54
2023/05/22 03:52:11;;;;;;;11.70;6.65;;;;;;;10.04;75.18;100752.41;1775669;80;25588;-53
2023/05/22 03:54:38;;;;;;;11.48;7.62;;;;;;;10.10;75.41;100751.24;1775592;80;27311;-54
2023/05/22 03:57:05;;;;;;;10.00;7.12;;;;;;;10.16;75.31;100751.95;1775511;80;25560;-56
2023/05/22 03:59:32;;;;;;;10.90;6.78;;;;;;;10.21;75.20;100753.78;1775621;80;25605;-54
2023/05/22 04:01:59;;;;;;;11.22;7.35;;;;;;;10.25;75.09;100754.81;1775517;80;25683;-53
2023/05/22 04:04:27;;;;;;;10.90;6.60;;;;;;;10.29;75.32;100759.88;1775644;80;25354;-53
2023/05/22 04:06:56;;;;;;;9.20;6.90;;;;;;;10.37;75.38;100756.53;1775548;80;27283;-51
2023/05/22 04:09:26;;;;;;;9.78;6.20;;;;;;;10.44;75.50;100758.30;1756402;80;25455;-52
2023/05/22 04:11:52;;;;;;;;;;;;;;;10.54;75.58;100753.80;1778202;80;25431;-54
2023/05/22 04:14:18;;;;;;;9.08;6.50;;;;;;;10.62;75.90;100760.70;1775508;80;25665;-52
2023/05/22 04:16:44;;;;;;;21.15;6.97;;;;;;;10.73;76.01;100750.50;1775554;80;25366;-52
2023/05/22 04:19:11;;;;;;;9.93;6.42;;;;;;;10.81;76.00;100752.52;1756105;79;28079;-55
2023/05/22 04:21:38;;;;;;;8.30;6.90;;;;;;;10.91;76.01;100748.00;1777758;80;25598;-53
2023/05/22 04:24:06;;;;;;;11.63;8.38;;;;;;;11.02;76.00;100748.06;1755517;80;25627;-55
2023/05/22 04:26:34;;;;;;;11.93;6.72;;;;;;;11.12;76.01;100748.42;1777812;80;25370;-54
2023/05/22 04:29:03;;;;;;;9.63;6.92;;;;;;;11.24;75.99;100746.53;1777792;80;25548;-56
2023/05/22 04:31:30;;;;;;;14.18;8.00;;;;;;;11.32;76.06;100740.41;1777781;80;27349;-56
2023/05/22 04:33:58;;;;;;;12.25;7.12;;;;;;;11.42;76.03;100738.84;1777648;80;25877;-54
2023/05/22 04:36:27;;;;;;;10.15;6.67;;;;;;;11.54;75.97;100741.03;1755684;80;25491;-54
2023/05/22 04:38:54;;;;;;;10.70;6.47;;;;;;;11.63;75.91;100737.05;1777771;80;25603;-53
2023/05/22 04:41:25;;;;;;;9.75;7.03;;;;;;;11.72;75.76;100731.17;1777754;80;25583;-54
2023/05/22 04:43:51;;;;;;;8.75;6.50;;;;;;;11.84;75.92;100731.42;1777491;80;27297;-54
2023/05/22 04:46:19;;;;;;;9.45;6.12;;;;;;;11.98;75.98;100729.25;1777623;80;25374;-56
2023/05/22 04:48:46;;;;;;;8.17;5.77;;;;;;;12.09;75.69;100735.48;1778011;80;25570;-55
2023/05/22 04:51:13;;;;;;;7.03;5.85;;;;;;;12.20;75.21;100730.59;1777696;80;25558;-54
2023/05/22 04:53:40;;;;;;;8.18;6.20;;;;;;;12.31;75.31;100734.67;1777793;80;25550;-53
2023/05/22 04:56:07;;;;;;;9.80;6.42;;;;;;;12.43;74.76;100729.22;1777670;80;28287;-54
2023/05/22 04:58:33;;;;;;;10.00;5.60;;;;;;;12.54;74.38;100725.14;1777736;80;25782;-54
2023/05/22 05:01:00;;;;;;;8.63;5.70;;;;;;;12.65;74.66;100730.55;1777844;80;25563;-55
2023/05/22 05:03:27;;;;;;;10.28;5.87;;;;;;;12.81;74.41;100726.06;1777756;80;25518;-55
2023/05/22 05:05:54;;;;;;;8.85;5.95;;;;;;;12.92;74.28;100727.38;1777770;80;25365;-53
2023/05/22 05:08:20;;;;;;;11.63;5.70;;;;;;;13.06;74.01;100725.92;1777740;80;27245;-54
2023/05/22 05:10:46;;;;;;;7.28;5.50;;;;;;;13.21;73.37;100728.73;1777593;80;25362;-58
2023/05/22 05:13:12;;;;;;;7.53;6.08;;;;;;;13.32;73.10;100731.44;1777744;80;25494;-55
2023/05/22 05:15:39;;;;;;;10.58;5.78;;;;;;;13.48;72.96;100741.86;1777676;80;25707;-54
2023/05/22 05:18:06;;;;;;;7.30;5.15;;;;;;;13.62;72.73;100743.86;1777795;80;25558;-55
2023/05/22 05:20:32;;;;;;;10.55;5.85;;;;;;;13.78;72.12;100739.56;1779071;80;27269;-56
2023/05/22 05:22:59;;;;;;;8.30;5.45;;;;;;;13.96;71.67;100745.00;1780141;80;25401;-55
2023/05/22 05:25:25;;;;;;;8.73;5.55;;;;;;;14.14;70.93;100746.59;1780367;80;25554;-54
2023/05/22 05:27:51;;;;;;;6.92;4.97;;;;;;;14.34;70.42;100736.95;1780195;80;25661;-54
2023/05/22 05:30:17;;;;;;;6.78;5.17;;;;;;;14.59;69.94;100741.89;1780227;80;25441;-56
2023/05/22 05:32:44;;;;;;;8.35;4.97;;;;;;;14.83;70.16;100738.05;1780285;80;27302;-53
2023/05/22 05:35:11;;;;;;;8.93;5.33;;;;;;;15.11;69.20;100732.94;1780066;80;27116;-54
2023/05/22 05:37:37;;;;;;;9.45;4.95;;;;;;;15.42;68.70;100733.72;1779724;80;25535;-56
2023/05/22 05:40:06;;;;;;;6.65;5.25;;;;;;;15.73;68.13;100740.14;1779039;80;26292;-56
2023/05/22 05:42:32;;;;;;;8.65;4.78;;;;;;;16.02;66.97;100734.41;1779294;80;25495;-56
2023/05/22 05:44:58;;;;;;;5.87;4.40;;;;;;;16.30;65.76;100736.57;1778655;80;27365;-56
2023/05/22 05:47:25;;;;;;;11.12;4.78;;;;;;;16.59;65.93;100736.97;1778588;80;25737;-53
2023/05/22 05:49:51;;;;;;;6.47;4.08;;;;;;;16.88;65.30;100736.59;1778682;80;25717;-55
2023/05/22 05:52:17;;;;;;;7.10;4.35;;;;;;;17.15;64.86;100733.16;1778604;80;25684;-54
2023/05/22 05:54:46;;;;;;;8.45;4.62;;;;;;;17.46;64.23;100737.80;1780197;80;25444;-56
2023/05/22 05:57:13;;;;;;;7.53;4.62;;;;;;;17.74;62.82;100733.72;1779121;80;27381;-56
2023/05/22 05:59:40;;;;;;;6.72;4.67;;;;;;;17.95;61.90;100736.91;1779839;80;25440;-56
2023/05/22 06:02:06;;;;;;;5.47;4.30;;;;;;;18.16;61.03;100739.42;1780046;80;25590;-54
2023/05/22 06:04:32;;;;;;;12.40;4.78;;;;;;;18.36;60.36;100741.14;1780146;80;26041;-56
2023/05/22 06:07:00;;;;;;;6.83;4.40;;;;;;;18.60;59.81;100738.04;1780171;80;25577;-57
2023/05/22 06:09:26;;;;;;;7.85;4.55;;;;;;;18.84;59.62;100737.88;1780184;80;27298;-56
2023/05/22 06:11:53;;;;;;;8.03;4.05;;;;;;;19.07;58.68;100737.82;1780166;80;25633;-56
2023/05/22 06:14:19;;;;;;;8.58;4.40;;;;;;;19.27;57.36;100736.72;1780177;80;25406;-56
2023/05/22 06:16:46;;;;;;;10.48;5.30;;;;;;;19.48;56.58;100731.48;1780185;80;25587;-56
2023/05/22 06:19:12;;;;;;;6.85;4.58;;;;;;;19.67;56.09;100727.41;1780275;80;25445;-55
2023/05/22 06:21:38;;;;;;;9.45;4.08;;;;;;;19.88;55.44;100727.07;1747711;80;27373;-54
2023/05/22 06:24:05;;;;;;;10.50;4.87;;;;;;;20.04;54.01;100728.38;1780109;80;25686;-56
2023/05/22 06:26:32;;;;;;;11.25;7.25;;;;;;;20.14;52.86;100724.23;1780193;80;25437;-55
2023/05/22 06:28:58;;;;;;;50.88;47.53;;;;;;;20.24;52.86;100728.34;1747415;80;26468;-56
2023/05/22 06:31:24;;;;;;;9.63;4.25;;;;;;;20.33;52.12;100713.81;1780164;80;25443;-56
2023/05/22 06:33:50;;;;;;;4.75;3.70;;;;;;;20.47;51.41;100717.38;1780152;80;27296;-53
2023/05/22 06:36:17;;;;;;;8.13;4.17;;;;;;;20.59;51.26;100715.03;1780071;80;25394;-57
2023/05/22 06:38:44;;;;;;;7.42;4.42;;;;;;;20.74;51.28;100720.20;1780141;80;25494;-56
2023/05/22 06:41:11;;;;;;;7.17;4.25;;;;;;;20.85;51.05;100719.20;1780183;80;26480;-54
2023/05/22 06:43:37;;;;;;;9.75;4.30;;;;;;;21.01;50.42;100719.64;1780150;80;25615;-55
2023/05/22 06:46:04;;;;;;;4.75;3.95;;;;;;;21.19;49.82;100718.54;1780112;80;29458;-54
2023/05/22 06:48:34;;;;;;;47.67;44.30;;;;;;;21.38;49.72;100717.63;1780072;80;25373;-55
2023/05/22 06:51:01;;;;;;;12.50;4.03;;;;;;;21.63;49.21;100713.27;1780185;80;25585;-57
2023/05/22 06:53:27;;;;;;;4.87;3.33;;;;;;;21.90;48.48;100712.41;1780088;80;25590;-58
2023/05/22 06:55:53;;;;;;;5.05;3.45;;;;;;;22.14;47.55;100709.13;1780146;80;25597;-57
2023/05/22 06:58:19;;;;;;;10.82;3.80;;;;;;;22.35;46.21;100717.42;1780113;80;27316;-57
2023/05/22 07:00:46;;;;;;;10.25;3.80;;;;;;;22.51;45.79;100711.68;1780026;80;27095;-57
2023/05/22 07:03:12;;;;;;;8.43;3.27;;;;;;;22.81;45.45;100712.88;1780106;80;25501;-57
2023/05/22 07:05:38;;;;;;;7.20;3.35;;;;;;;22.95;42.94;100712.20;1780077;80;25637;-55
2023/05/22 07:08:05;;;;;;;5.80;3.30;;;;;;;23.04;43.93;100709.13;1780259;80;25567;-57
2023/05/22 07:10:31;;;;;;;10.82;3.37;;;;;;;23.28;43.82;100711.27;1780161;80;27243;-56
2023/05/22 07:12:57;;;;;;;9.45;3.10;;;;;;;23.57;43.40;100710.63;1780050;80;25647;-53
2023/05/22 07:15:23;;;;;;;9.48;3.40;;;;;;;23.91;43.12;100704.86;1780149;80;25416;-56
2023/05/22 07:17:49;;;;;;;11.00;3.67;;;;;;;24.24;42.95;100704.52;1780100;80;25607;-54
2023/05/22 07:20:16;;;;;;;5.83;3.17;;;;;;;24.60;42.54;100704.59;1782148;80;25528;-54
2023/05/22 07:22:42;;;;;;;9.08;3.50;;;;;;;24.75;40.39;100699.04;1780688;80;27306;-56
2023/05/22 07:25:09;;;;;;;8.33;2.80;;;;;;;24.86;40.30;100700.41;1794359;79;25729;-58
2023/05/22 07:27:35;;;;;;;26.17;24.30;;;;;;;24.98;39.71;100700.80;1780641;80;25608;-61
2023/05/22 07:30:02;;;;;;;67.67;63.48;;;;;;;25.07;39.06;100699.00;1780532;80;25685;-59
2023/05/22 07:32:28;;;;;;;66.92;63.08;;;;;;;25.31;37.43;100700.14;1780563;80;25621;-58
2023/05/22 07:34:55;;;;;;;3.67;2.80;;;;;;;25.47;37.50;100694.17;1794470;79;27348;-59
2023/05/22 07:37:22;;;;;;;6.78;2.75;;;;;;;25.78;36.93;100699.97;1794358;79;25718;-59
2023/05/22 07:39:50;;;;;;;7.87;2.80;;;;;;;25.97;37.02;100693.77;1794485;80;25331;-61
2023/05/22 07:42:17;;;;;;;3.80;2.45;;;;;;;26.12;36.70;100689.71;1779893;80;25641;-59
2023/05/22 07:44:44;;;;;;;4.35;2.12;;;;;;;26.44;35.96;100690.86;1793055;79;26150;-60
2023/05/22 07:47:12;;;;;;;6.03;2.35;;;;;;;26.75;35.45;100685.47;1779938;80;27199;-60
2023/05/22 07:49:39;;;;;;;4.22;2.60;;;;;;;26.98;33.56;100683.44;1752070;80;25876;-60
2023/05/22 07:52:06;;;;;;;5.85;2.15;;;;;;;27.00;33.37;100683.03;1794620;79;25315;-61
2023/05/22 07:54:33;;;;;;;7.50;2.60;;;;;;;26.97;33.41;100679.69;1780637;80;25670;-59
2023/05/22 07:57:02;;;;;;;52.08;48.98;;;;;;;27.08;33.17;100682.38;1780676;80;25365;-60
2023/05/22 07:59:29;;;;;;;5.28;2.37;;;;;;;27.06;32.18;100676.45;1794612;79;27101;-60
2023/05/22 08:01:57;;;;;;;5.45;2.30;;;;;;;27.08;31.90;100675.42;1751994;80;25478;-60
2023/05/22 08:04:24;;;;;;;3.05;2.40;;;;;;;26.99;32.22;100679.48;1794458;79;25489;-61
2023/05/22 08:06:52;;;;;;;8.13;2.50;;;;;;;27.20;32.29;100675.66;1780460;80;25672;-62
2023/05/22 08:09:20;;;;;;;5.62;3.27;;;;;;;27.55;32.09;100674.31;1763292;80;25341;-61
2023/05/22 08:11:47;;;;;;;4.20;2.30;;;;;;;27.86;31.62;100679.23;1780770;80;27182;-61
2023/05/22 08:14:15;;;;;;;5.92;2.20;;;;;;;28.01;31.56;100679.85;1794335;79;25403;-61
2023/05/22 08:16:42;;;;;;;10.90;9.10;;;;;;;28.36;31.47;100678.32;1780564;80;25519;-62
2023/05/22 08:19:09;;;;;;;3.52;2.20;;;;;;;28.75;31.45;100673.50;1794416;80;25671;-61
2023/05/22 08:21:37;;;;;;;4.37;2.42;;;;;;;29.19;30.52;100679.08;1786568;80;25347;-61
2023/05/22 08:24:05;;;;;;;7.30;6.72;;;;;;;29.17;29.31;100677.34;1747440;80;27271;-59
2023/05/22 08:26:33;;;;;;;60.73;56.88;;;;;;;28.95;28.78;100664.41;1748226;80;25553;-59
2023/05/22 08:29:00;;;;;;;8.65;2.35;;;;;;;28.90;29.18;100668.46;1780242;80;25330;-58
2023/05/22 08:31:28;;;;;;;6.90;2.25;;;;;;;28.45;28.17;100666.03;1780216;80;25603;-58
2023/05/22 08:34:01;;;;;;;4.03;2.22;;;;;;;27.87;27.62;100671.67;1780246;80;25358;-58
2023/05/22 08:36:24;;;;;;;2.45;2.17;;;;;;;27.53;27.91;100673.34;1779338;80;27167;-57
2023/05/22 08:38:51;;;;;;;3.60;2.12;;;;;;;27.25;28.04;100673.05;1780120;80;25486;-54
2023/05/22 08:41:19;;;;;;;2.70;2.17;;;;;;;26.92;27.99;100671.23;1773148;80;25500;-55
2023/05/22 08:43:47;;;;;;;3.05;2.45;;;;;;;26.55;28.50;100671.34;1780139;80;27743;-57
2023/05/22 08:46:16;;;;;;;5.37;2.65;;;;;;;26.62;29.26;100666.34;1747485;80;25313;-56
2023/05/22 08:48:43;;;;;;;;;;;;;;;26.57;28.93;100668.17;1782854;80;29322;-57
2023/05/22 08:51:14;;;;;;;2.92;2.17;;;;;;;26.46;28.83;100659.95;1780192;80;25490;-57
2023/05/22 08:53:43;;;;;;;4.95;2.25;;;;;;;26.82;28.98;100660.42;1780253;80;25482;-57
2023/05/22 08:56:10;;;;;;;;;;;;;;;27.29;28.69;100660.53;1782842;80;25624;-57
2023/05/22 08:58:37;;;;;;;3.65;2.27;;;;;;;27.26;27.66;100659.94;1780237;80;25372;-58
2023/05/22 09:01:06;;;;;;;2.70;1.65;;;;;;;27.29;27.45;100667.47;1780268;80;29399;-59
2023/05/22 09:03:35;;;;;;;4.78;2.33;;;;;;;27.17;27.07;100659.05;1780275;80;25471;-59
2023/05/22 09:06:09;;;;;;;4.25;2.10;;;;;;;27.01;27.21;100657.64;1780216;80;25267;-59
2023/05/22 09:08:32;;;;;;;4.00;2.37;;;;;;;27.16;27.06;100655.50;1780078;80;25589;-58
2023/05/22 09:10:59;;;;;;;3.55;2.62;;;;;;;27.37;26.95;100660.03;1780365;80;25483;-56
2023/05/22 09:13:30;;;;;;;3.42;2.17;;;;;;;27.82;27.48;100656.28;1780302;80;27190;-57
2023/05/22 09:16:08;;;;;;;5.17;2.40;;;;;;;28.09;26.91;100656.88;1780100;80;25330;-57
2023/05/22 09:18:38;;;;;;;2.35;2.15;;;;;;;28.13;26.70;100650.07;1780549;80;25337;-57
2023/05/22 09:21:06;;;;;;;38.83;35.10;;;;;;;28.13;25.77;100645.12;1781970;80;25634;-61
2023/05/22 09:23:34;;;;;;;3.33;2.80;;;;;;;28.35;27.10;100651.13;1769981;81;25551;-60
2023/05/22 09:26:04;;;;;;;5.22;2.70;;;;;;;28.62;26.60;100644.71;1748856;82;27205;-62
2023/05/22 09:28:35;;;;;;;2.87;2.50;;;;;;;28.58;26.54;100641.99;1783551;80;25471;-61
2023/05/22 09:31:05;;;;;;;5.45;2.45;;;;;;;28.97;26.57;100636.92;1748808;81;25480;-60
2023/05/22 09:33:32;;;;;;;4.10;2.35;;;;;;;29.47;26.22;100627.55;1783577;80;25604;-61
2023/05/22 09:36:00;;;;;;;4.15;2.40;;;;;;;29.96;26.30;100630.44;1724838;83;25546;-58
2023/05/22 09:38:30;;;;;;;5.60;2.00;;;;;;;30.22;25.89;100628.44;1749036;82;27864;-57
2023/05/22 09:40:57;;;;;;;7.25;2.50;;;;;;;29.93;24.49;100630.52;1783436;80;25521;-54
2023/05/22 09:43:24;;;;;;;2.75;2.10;;;;;;;29.26;24.75;100631.58;1748776;82;25534;-55
2023/05/22 09:45:58;;;;;;;5.03;2.20;;;;;;;28.73;25.21;100624.44;1783464;80;25600;-57
2023/05/22 09:48:25;;;;;;;3.90;2.35;;;;;;;28.29;25.55;100629.94;1748928;81;25515;-56
2023/05/22 09:50:54;;;;;;;3.22;2.05;;;;;;;27.93;25.55;100630.52;1783635;80;27937;-56
2023/05/22 09:53:27;;;;;;;56.70;53.80;;;;;;;27.84;26.79;100623.87;1748714;81;25651;-54
2023/05/22 09:55:59;;;;;;;3.17;2.22;;;;;;;28.23;26.46;100618.33;1783542;80;25302;-53
2023/05/22 09:58:30;;;;;;;2.30;2.10;;;;;;;28.54;25.80;100615.41;1748742;82;25722;-55
2023/05/22 10:01:00;;;;;;;5.12;2.30;;;;;;;28.38;26.11;100610.53;1783592;80;25456;-54
2023/05/22 10:03:30;;;;;;;5.58;2.27;;;;;;;28.59;26.14;100613.55;1748772;81;26735;-53
2023/05/22 10:06:00;;;;;;;4.35;2.25;;;;;;;28.67;25.69;100614.41;1783455;80;25515;-56
2023/05/22 10:08:28;;;;;;;2.80;2.30;;;;;;;28.27;24.84;100612.12;1748845;82;25324;-57
2023/05/22 10:10:57;;;;;;;2.10;1.90;;;;;;;28.22;25.37;100623.72;1783736;80;25772;-55
2023/05/22 10:13:26;;;;;;;4.55;2.60;;;;;;;28.02;24.79;100625.81;1748742;82;25492;-56
2023/05/22 10:15:55;;;;;;;2.72;2.08;;;;;;;27.54;25.52;100614.39;1783533;80;27184;-57
2023/05/22 10:18:25;;;;;;;2.20;2.02;;;;;;;27.33;25.91;100617.64;1748812;81;25300;-56
2023/05/22 10:20:53;;;;;;;5.30;2.33;;;;;;;27.18;26.13;100611.44;1783497;80;25355;-57
2023/05/22 10:23:21;;;;;;;4.78;2.20;;;;;;;27.13;26.45;100611.13;1742691;81;27794;-57
2023/05/22 10:25:49;;;;;;;3.53;2.40;;;;;;;27.12;26.13;100620.64;1724284;83;25357;-58
2023/05/22 10:28:25;;;;;;;4.62;2.42;;;;;;;26.75;26.32;100614.72;1724187;83;27819;-58
2023/05/22 10:31:06;;;;;;;4.47;2.35;;;;;;;26.54;26.94;100617.67;1742583;82;25507;-57
2023/05/22 10:33:41;;;;;;;5.28;2.60;;;;;;;26.71;27.09;100613.95;1742661;82;25477;-57
2023/05/22 10:36:30;;;;;;;6.22;3.30;;;;;;;27.11;27.34;100603.82;1742595;81;25695;-54
2023/05/22 10:39:30;;;;;;;3.08;2.00;;;;;;;27.41;27.29;100603.05;1742680;82;25481;-57
2023/05/22 10:41:58;;;;;;;3.45;2.12;;;;;;;27.76;27.41;100595.42;1717328;83;27319;-55
2023/05/22 10:44:25;;;;;;;3.70;2.30;;;;;;;27.72;26.30;100601.03;1717273;83;25702;-56
2023/05/22 10:46:52;;;;;;;4.95;2.55;;;;;;;27.41;26.30;100605.82;1717406;83;25331;-55
2023/05/22 10:49:22;;;;;;;3.80;2.45;;;;;;;27.05;26.14;100606.25;1717362;83;25610;-55
2023/05/22 10:51:56;;;;;;;2.27;2.00;;;;;;;26.65;26.64;100612.84;1717434;83;25455;-56
2023/05/22 10:54:43;;;;;;;3.37;2.45;;;;;;;26.32;27.05;100600.44;1716797;83;26505;-56
2023/05/22 10:57:17;;;;;;;3.67;2.30;;;;;;;26.07;27.26;100599.45;1717258;83;25730;-53
2023/05/22 10:59:48;;;;;;;3.10;2.20;;;;;;;25.91;27.77;100600.53;1717421;83;25498;-56
2023/05/22 11:02:30;;;;;;;4.95;3.83;;;;;;;25.77;27.82;100597.88;1717369;83;25591;-59
2023/05/22 11:05:20;;;;;;;6.97;5.47;;;;;;;25.71;27.67;100601.07;1717492;83;25497;-57
2023/05/22 11:07:48;;;;;;;7.17;2.40;;;;;;;25.62;27.90;100590.24;1717438;83;27251;-59
2023/05/22 11:10:28;;;;;;;8.28;2.45;;;;;;;25.66;28.14;100593.77;1717442;83;25716;-59
2023/05/22 11:13:10;;;;;;;5.22;2.87;;;;;;;25.68;28.00;100594.95;1717304;83;25434;-53
2023/05/22 11:15:45;;;;;;;8.23;3.40;;;;;;;25.48;27.68;100591.90;1722592;82;25731;-60
2023/05/22 11:18:15;;;;;;;6.05;3.20;;;;;;;25.20;29.09;100590.63;1742657;81;25475;-60
2023/05/22 11:20:43;;;;;;;6.35;3.00;;;;;;;25.08;29.31;100593.23;1742540;82;29394;-59
2023/05/22 11:23:11;;;;;;;5.75;2.58;;;;;;;24.92;29.50;100590.33;1715771;82;25608;-60
2023/05/22 11:25:40;;;;;;;4.00;2.85;;;;;;;24.76;30.36;100578.94;1745430;82;25327;-61
2023/05/22 11:28:09;;;;;;;;;;;;;;;24.68;30.37;100580.91;1748058;82;25701;-60
2023/05/22 11:30:37;;;;;;;5.92;2.85;;;;;;;24.81;30.49;100578.53;1745690;82;25526;-60